sensor_id;sensor_type;location;lat;lon;timestamp;pressure;altitude;pressure_sealevel;temperature;humidity
77159;BME280;66129;45.890;13.714;2024-02-26T00:00:31;100312.72;;;4.57;100.00
77159;BME280;66129;45.890;13.714;2024-02-26T00:02:57;100319.53;;;4.58;100.00
77159;BME280;66129;45.890;13.714;2024-02-26T00:05:22;100343.09;;;4.56;100.00
77159;BME280;66129;45.890;13.714;2024-02-26T00:07:48;100317.72;;;4.56;100.00
77159;BME280;66129;45.890;13.714;2024-02-26T00:10:14;100327.13;;;4.58;100.00
77159;BME280;66129;45.890;13.714;2024-02-26T00:12:40;100333.94;;;4.59;100.00
77159;BME280;66129;45.890;13.714;2024-02-26T00:15:06;100316.88;;;4.55;100.00
77159;BME280;66129;45.890;13.714;2024-02-26T00:17:32;100312.75;;;4.59;100.00
77159;BME280;66129;45.890;13.714;2024-02-26T00:19:58;100314.06;;;4.71;100.00
77159;BME280;66129;45.890;13.714;2024-02-26T00:22:23;100317.56;;;4.75;100.00
77159;BME280;66129;45.890;13.714;2024-02-26T00:24:49;100296.94;;;4.66;100.00
77159;BME280;66129;45.890;13.714;2024-02-26T00:27:14;100311.84;;;4.57;100.00
77159;BME280;66129;45.890;13.714;2024-02-26T00:29:40;100309.38;;;4.58;100.00
77159;BME280;66129;45.890;13.714;2024-02-26T00:32:05;100312.41;;;4.50;100.00
77159;BME280;66129;45.890;13.714;2024-02-26T00:34:31;100318.63;;;4.58;100.00
77159;BME280;66129;45.890;13.714;2024-02-26T00:36:57;100310.31;;;4.62;100.00
77159;BME280;66129;45.890;13.714;2024-02-26T00:39:22;100291.38;;;4.52;100.00
77159;BME280;66129;45.890;13.714;2024-02-26T00:41:47;100303.50;;;4.37;100.00
77159;BME280;66129;45.890;13.714;2024-02-26T00:44:13;100304.50;;;4.41;100.00
77159;BME280;66129;45.890;13.714;2024-02-26T00:46:38;100298.72;;;4.45;100.00
77159;BME280;66129;45.890;13.714;2024-02-26T00:49:04;100289.38;;;4.44;100.00
77159;BME280;66129;45.890;13.714;2024-02-26T00:51:29;100283.28;;;4.39;100.00
77159;BME280;66129;45.890;13.714;2024-02-26T00:53:55;100297.81;;;4.43;100.00
77159;BME280;66129;45.890;13.714;2024-02-26T00:56:21;100276.59;;;4.41;100.00
77159;BME280;66129;45.890;13.714;2024-02-26T00:58:47;100280.19;;;4.47;100.00
77159;BME280;66129;45.890;13.714;2024-02-26T01:01:12;100280.31;;;4.50;100.00
77159;BME280;66129;45.890;13.714;2024-02-26T01:03:38;100278.69;;;4.52;100.00
77159;BME280;66129;45.890;13.714;2024-02-26T01:06:04;100273.41;;;4.46;100.00
77159;BME280;66129;45.890;13.714;2024-02-26T01:08:29;100276.31;;;4.34;100.00
77159;BME280;66129;45.890;13.714;2024-02-26T01:10:55;100269.72;;;4.38;100.00
77159;BME280;66129;45.890;13.714;2024-02-26T01:13:20;100269.91;;;4.43;100.00
77159;BME280;66129;45.890;13.714;2024-02-26T01:15:46;100263.91;;;4.41;100.00
77159;BME280;66129;45.890;13.714;2024-02-26T01:18:11;100262.19;;;4.40;100.00
77159;BME280;66129;45.890;13.714;2024-02-26T01:20:37;100262.97;;;4.39;100.00
77159;BME280;66129;45.890;13.714;2024-02-26T01:23:02;100246.00;;;4.15;100.00
77159;BME280;66129;45.890;13.714;2024-02-26T01:25:28;100248.63;;;4.16;100.00
77159;BME280;66129;45.890;13.714;2024-02-26T01:27:53;100242.56;;;4.13;100.00
77159;BME280;66129;45.890;13.714;2024-02-26T01:30:19;100259.72;;;4.20;100.00
77159;BME280;66129;45.890;13.714;2024-02-26T01:32:45;100240.28;;;4.20;100.00
77159;BME280;66129;45.890;13.714;2024-02-26T01:35:10;100243.84;;;4.25;100.00
77159;BME280;66129;45.890;13.714;2024-02-26T01:37:37;100246.03;;;4.38;100.00
77159;BME280;66129;45.890;13.714;2024-02-26T01:40:03;100241.06;;;4.41;100.00
77159;BME280;66129;45.890;13.714;2024-02-26T01:42:32;100242.47;;;4.33;100.00
77159;BME280;66129;45.890;13.714;2024-02-26T01:44:59;100246.28;;;4.22;100.00
77159;BME280;66129;45.890;13.714;2024-02-26T01:47:25;100235.81;;;4.13;100.00
77159;BME280;66129;45.890;13.714;2024-02-26T01:49:52;100240.22;;;4.17;100.00
77159;BME280;66129;45.890;13.714;2024-02-26T01:52:18;100233.06;;;4.07;100.00
77159;BME280;66129;45.890;13.714;2024-02-26T01:54:45;100240.78;;;4.10;100.00
77159;BME280;66129;45.890;13.714;2024-02-26T01:57:12;100232.16;;;4.05;100.00
77159;BME280;66129;45.890;13.714;2024-02-26T01:59:39;100223.72;;;4.06;100.00
77159;BME280;66129;45.890;13.714;2024-02-26T02:02:07;100235.75;;;4.12;100.00
77159;BME280;66129;45.890;13.714;2024-02-26T02:04:36;100236.28;;;4.03;100.00
77159;BME280;66129;45.890;13.714;2024-02-26T02:07:02;100230.06;;;3.95;100.00
77159;BME280;66129;45.890;13.714;2024-02-26T02:09:28;100231.28;;;4.05;100.00
77159;BME280;66129;45.890;13.714;2024-02-26T02:11:54;100229.84;;;4.11;100.00
77159;BME280;66129;45.890;13.714;2024-02-26T02:14:21;100224.56;;;4.07;100.00
77159;BME280;66129;45.890;13.714;2024-02-26T02:16:47;100218.31;;;3.97;100.00
77159;BME280;66129;45.890;13.714;2024-02-26T02:19:13;100213.66;;;3.86;100.00
77159;BME280;66129;45.890;13.714;2024-02-26T02:21:38;100217.34;;;3.94;100.00
77159;BME280;66129;45.890;13.714;2024-02-26T02:24:04;100214.19;;;3.77;100.00
77159;BME280;66129;45.890;13.714;2024-02-26T02:26:30;100215.69;;;3.72;100.00
77159;BME280;66129;45.890;13.714;2024-02-26T02:28:55;100213.59;;;3.62;100.00
77159;BME280;66129;45.890;13.714;2024-02-26T02:31:21;100223.19;;;3.69;100.00
77159;BME280;66129;45.890;13.714;2024-02-26T02:33:47;100213.97;;;3.71;100.00
77159;BME280;66129;45.890;13.714;2024-02-26T02:36:13;100212.63;;;3.59;100.00
77159;BME280;66129;45.890;13.714;2024-02-26T02:38:48;100215.19;;;3.59;100.00
77159;BME280;66129;45.890;13.714;2024-02-26T02:41:15;100210.63;;;3.50;100.00
77159;BME280;66129;45.890;13.714;2024-02-26T02:43:40;100221.84;;;3.57;100.00
77159;BME280;66129;45.890;13.714;2024-02-26T02:46:06;100223.66;;;3.59;100.00
77159;BME280;66129;45.890;13.714;2024-02-26T02:48:32;100201.06;;;3.65;100.00
77159;BME280;66129;45.890;13.714;2024-02-26T02:50:57;100198.75;;;3.71;100.00
77159;BME280;66129;45.890;13.714;2024-02-26T02:53:23;100203.25;;;3.78;100.00
77159;BME280;66129;45.890;13.714;2024-02-26T02:55:48;100203.59;;;3.65;100.00
77159;BME280;66129;45.890;13.714;2024-02-26T02:58:14;100196.75;;;3.63;100.00
77159;BME280;66129;45.890;13.714;2024-02-26T03:00:39;100191.59;;;3.61;100.00
77159;BME280;66129;45.890;13.714;2024-02-26T03:03:04;100204.19;;;3.58;100.00
77159;BME280;66129;45.890;13.714;2024-02-26T03:05:30;100197.19;;;3.53;100.00
77159;BME280;66129;45.890;13.714;2024-02-26T03:07:55;100183.81;;;3.55;100.00
77159;BME280;66129;45.890;13.714;2024-02-26T03:10:21;100184.81;;;3.60;100.00
77159;BME280;66129;45.890;13.714;2024-02-26T03:12:46;100188.22;;;3.61;100.00
77159;BME280;66129;45.890;13.714;2024-02-26T03:15:12;100191.59;;;3.61;100.00
77159;BME280;66129;45.890;13.714;2024-02-26T03:17:37;100188.22;;;3.61;100.00
77159;BME280;66129;45.890;13.714;2024-02-26T03:20:03;100174.53;;;3.56;100.00
77159;BME280;66129;45.890;13.714;2024-02-26T03:22:30;100167.19;;;3.63;100.00
77159;BME280;66129;45.890;13.714;2024-02-26T03:24:57;100168.72;;;3.58;100.00
77159;BME280;66129;45.890;13.714;2024-02-26T03:27:22;100173.88;;;3.61;100.00
77159;BME280;66129;45.890;13.714;2024-02-26T03:29:48;100181.56;;;3.63;100.00
77159;BME280;66129;45.890;13.714;2024-02-26T03:32:14;100177.44;;;3.66;100.00
77159;BME280;66129;45.890;13.714;2024-02-26T03:34:39;100176.22;;;3.55;100.00
77159;BME280;66129;45.890;13.714;2024-02-26T03:37:05;100175.72;;;3.65;100.00
77159;BME280;66129;45.890;13.714;2024-02-26T03:39:31;100161.94;;;3.57;100.00
77159;BME280;66129;45.890;13.714;2024-02-26T03:41:57;100164.66;;;3.63;100.00
77159;BME280;66129;45.890;13.714;2024-02-26T03:44:22;100163.00;;;3.64;100.00
77159;BME280;66129;45.890;13.714;2024-02-26T03:46:48;100155.28;;;3.61;100.00
77159;BME280;66129;45.890;13.714;2024-02-26T03:49:13;100160.63;;;3.68;100.00
77159;BME280;66129;45.890;13.714;2024-02-26T03:51:39;100164.78;;;3.44;100.00
77159;BME280;66129;45.890;13.714;2024-02-26T03:54:04;100153.06;;;3.46;100.00
77159;BME280;66129;45.890;13.714;2024-02-26T03:56:30;100164.09;;;3.48;100.00
77159;BME280;66129;45.890;13.714;2024-02-26T03:58:55;100160.78;;;3.49;100.00
77159;BME280;66129;45.890;13.714;2024-02-26T04:01:21;100165.44;;;3.61;100.00
77159;BME280;66129;45.890;13.714;2024-02-26T04:03:47;100162.19;;;3.65;100.00
77159;BME280;66129;45.890;13.714;2024-02-26T04:06:12;100165.44;;;3.61;100.00
77159;BME280;66129;45.890;13.714;2024-02-26T04:08:43;100160.47;;;3.64;100.00
77159;BME280;66129;45.890;13.714;2024-02-26T04:11:08;100157.97;;;3.65;100.00
77159;BME280;66129;45.890;13.714;2024-02-26T04:13:35;100158.50;;;3.57;100.00
77159;BME280;66129;45.890;13.714;2024-02-26T04:16:00;100167.31;;;3.66;100.00
77159;BME280;66129;45.890;13.714;2024-02-26T04:18:27;100167.16;;;3.62;100.00
77159;BME280;66129;45.890;13.714;2024-02-26T04:20:53;100170.50;;;3.61;100.00
77159;BME280;66129;45.890;13.714;2024-02-26T04:23:19;100163.81;;;3.63;100.00
77159;BME280;66129;45.890;13.714;2024-02-26T04:25:44;100162.19;;;3.65;100.00
77159;BME280;66129;45.890;13.714;2024-02-26T04:28:10;100157.97;;;3.65;100.00
77159;BME280;66129;45.890;13.714;2024-02-26T04:30:35;100167.06;;;3.60;100.00
77159;BME280;66129;45.890;13.714;2024-02-26T04:33:01;100165.28;;;3.56;100.00
77159;BME280;66129;45.890;13.714;2024-02-26T04:35:26;100157.03;;;3.62;100.00
77159;BME280;66129;45.890;13.714;2024-02-26T04:37:52;100160.50;;;3.65;100.00
77159;BME280;66129;45.890;13.714;2024-02-26T04:40:17;100169.97;;;3.69;100.00
77159;BME280;66129;45.890;13.714;2024-02-26T04:42:43;100173.19;;;3.65;100.00
77159;BME280;66129;45.890;13.714;2024-02-26T04:45:08;100160.19;;;3.56;100.00
77159;BME280;66129;45.890;13.714;2024-02-26T04:47:34;100162.25;;;3.66;100.00
77159;BME280;66129;45.890;13.714;2024-02-26T04:49:59;100166.19;;;3.58;100.00
77159;BME280;66129;45.890;13.714;2024-02-26T04:52:25;100158.75;;;3.63;100.00
77159;BME280;66129;45.890;13.714;2024-02-26T04:54:50;100157.41;;;3.72;100.00
77159;BME280;66129;45.890;13.714;2024-02-26T04:57:16;100149.91;;;3.75;100.00
77159;BME280;66129;45.890;13.714;2024-02-26T04:59:44;100147.50;;;3.78;100.00
77159;BME280;66129;45.890;13.714;2024-02-26T05:02:11;100151.28;;;3.89;100.00
77159;BME280;66129;45.890;13.714;2024-02-26T05:04:37;100145.09;;;4.05;100.00
77159;BME280;66129;45.890;13.714;2024-02-26T05:07:02;100155.84;;;4.23;100.00
77159;BME280;66129;45.890;13.714;2024-02-26T05:09:28;100147.91;;;4.37;100.00
77159;BME280;66129;45.890;13.714;2024-02-26T05:11:54;100138.22;;;4.50;100.00
77159;BME280;66129;45.890;13.714;2024-02-26T05:14:19;100147.16;;;4.64;100.00
77159;BME280;66129;45.890;13.714;2024-02-26T05:16:45;100148.41;;;4.77;100.00
77159;BME280;66129;45.890;13.714;2024-02-26T05:19:11;100151.88;;;4.79;100.00
77159;BME280;66129;45.890;13.714;2024-02-26T05:21:36;100144.25;;;4.79;100.00
77159;BME280;66129;45.890;13.714;2024-02-26T05:24:02;100139.00;;;4.74;100.00
77159;BME280;66129;45.890;13.714;2024-02-26T05:26:27;100150.84;;;4.74;100.00
77159;BME280;66129;45.890;13.714;2024-02-26T05:28:53;100137.97;;;4.68;100.00
77159;BME280;66129;45.890;13.714;2024-02-26T05:31:18;100149.22;;;4.76;100.00
77159;BME280;66129;45.890;13.714;2024-02-26T05:33:44;100138.81;;;4.68;100.00
77159;BME280;66129;45.890;13.714;2024-02-26T05:36:09;100162.66;;;4.73;100.00
77159;BME280;66129;45.890;13.714;2024-02-26T05:38:35;100163.44;;;4.71;100.00
77159;BME280;66129;45.890;13.714;2024-02-26T05:41:00;100173.97;;;4.58;100.00
77159;BME280;66129;45.890;13.714;2024-02-26T05:43:26;100167.78;;;4.50;100.00
77159;BME280;66129;45.890;13.714;2024-02-26T05:45:52;100185.41;;;4.45;100.00
77159;BME280;66129;45.890;13.714;2024-02-26T05:48:18;100185.19;;;4.39;100.00
77159;BME280;66129;45.890;13.714;2024-02-26T05:50:47;100196.44;;;4.46;100.00
77159;BME280;66129;45.890;13.714;2024-02-26T05:53:13;100203.81;;;4.40;100.00
77159;BME280;66129;45.890;13.714;2024-02-26T05:55:38;100183.06;;;4.27;100.00
77159;BME280;66129;45.890;13.714;2024-02-26T05:58:04;100210.88;;;4.25;100.00
77159;BME280;66129;45.890;13.714;2024-02-26T06:00:30;100195.78;;;4.28;100.00
77159;BME280;66129;45.890;13.714;2024-02-26T06:02:56;100199.81;;;4.23;100.00
77159;BME280;66129;45.890;13.714;2024-02-26T06:05:21;100212.69;;;4.28;100.00
77159;BME280;66129;45.890;13.714;2024-02-26T06:07:47;100212.63;;;4.26;100.00
77159;BME280;66129;45.890;13.714;2024-02-26T06:10:12;100211.09;;;4.31;100.00
77159;BME280;66129;45.890;13.714;2024-02-26T06:12:41;100218.81;;;4.34;100.00
77159;BME280;66129;45.890;13.714;2024-02-26T06:15:07;100224.56;;;4.29;100.00
77159;BME280;66129;45.890;13.714;2024-02-26T06:17:33;100221.22;;;4.30;100.00
77159;BME280;66129;45.890;13.714;2024-02-26T06:19:59;100235.31;;;4.23;100.00
77159;BME280;66129;45.890;13.714;2024-02-26T06:22:25;100236.25;;;4.25;100.00
77159;BME280;66129;45.890;13.714;2024-02-26T06:24:50;100225.69;;;4.13;100.00
77159;BME280;66129;45.890;13.714;2024-02-26T06:27:16;100237.81;;;4.22;100.00
77159;BME280;66129;45.890;13.714;2024-02-26T06:29:45;100243.22;;;4.31;100.00
77159;BME280;66129;45.890;13.714;2024-02-26T06:32:10;100239.13;;;4.34;100.00
77159;BME280;66129;45.890;13.714;2024-02-26T06:34:36;100263.25;;;4.46;100.00
77159;BME280;66129;45.890;13.714;2024-02-26T06:37:03;100248.16;;;4.51;100.00
77159;BME280;66129;45.890;13.714;2024-02-26T06:39:29;100243.81;;;4.47;100.00
77159;BME280;66129;45.890;13.714;2024-02-26T06:41:54;100248.00;;;4.70;100.00
77159;BME280;66129;45.890;13.714;2024-02-26T06:44:26;100254.84;;;4.72;100.00
77159;BME280;66129;45.890;13.714;2024-02-26T06:46:52;100244.56;;;4.68;100.00
77159;BME280;66129;45.890;13.714;2024-02-26T06:49:18;100243.88;;;4.98;100.00
77159;BME280;66129;45.890;13.714;2024-02-26T06:51:43;100247.28;;;5.24;100.00
77159;BME280;66129;45.890;13.714;2024-02-26T06:54:09;100243.56;;;5.39;100.00
77159;BME280;66129;45.890;13.714;2024-02-26T06:56:34;100253.19;;;5.49;100.00
77159;BME280;66129;45.890;13.714;2024-02-26T06:59:00;100248.75;;;5.70;100.00
77159;BME280;66129;45.890;13.714;2024-02-26T07:01:25;100256.41;;;5.70;100.00
77159;BME280;66129;45.890;13.714;2024-02-26T07:03:51;100254.47;;;5.89;100.00
77159;BME280;66129;45.890;13.714;2024-02-26T07:06:16;100261.88;;;6.10;100.00
77159;BME280;66129;45.890;13.714;2024-02-26T07:08:42;100251.19;;;6.21;100.00
77159;BME280;66129;45.890;13.714;2024-02-26T07:11:08;100256.22;;;6.49;100.00
77159;BME280;66129;45.890;13.714;2024-02-26T07:13:34;100245.47;;;6.59;100.00
77159;BME280;66129;45.890;13.714;2024-02-26T07:15:59;100255.97;;;6.71;100.00
77159;BME280;66129;45.890;13.714;2024-02-26T07:18:25;100257.94;;;6.81;100.00
77159;BME280;66129;45.890;13.714;2024-02-26T07:20:53;100262.94;;;6.78;100.00
77159;BME280;66129;45.890;13.714;2024-02-26T07:23:24;100272.75;;;6.95;100.00
77159;BME280;66129;45.890;13.714;2024-02-26T07:25:50;100272.69;;;6.92;100.00
77159;BME280;66129;45.890;13.714;2024-02-26T07:28:18;100278.50;;;6.88;100.00
77159;BME280;66129;45.890;13.714;2024-02-26T07:30:43;100273.84;;;7.05;100.00
77159;BME280;66129;45.890;13.714;2024-02-26T07:33:09;100270.72;;;7.15;100.00
77159;BME280;66129;45.890;13.714;2024-02-26T07:35:34;100273.38;;;7.19;100.00
77159;BME280;66129;45.890;13.714;2024-02-26T07:38:01;100261.72;;;7.29;100.00
77159;BME280;66129;45.890;13.714;2024-02-26T07:40:27;100264.00;;;7.52;100.00
77159;BME280;66129;45.890;13.714;2024-02-26T07:42:52;100263.38;;;7.62;100.00
77159;BME280;66129;45.890;13.714;2024-02-26T07:45:18;100262.09;;;7.80;100.00
77159;BME280;66129;45.890;13.714;2024-02-26T07:47:46;100273.31;;;7.87;100.00
77159;BME280;66129;45.890;13.714;2024-02-26T07:50:12;100257.88;;;7.81;100.00
77159;BME280;66129;45.890;13.714;2024-02-26T07:52:37;100258.09;;;7.91;100.00
77159;BME280;66129;45.890;13.714;2024-02-26T07:55:03;100250.75;;;7.68;100.00
77159;BME280;66129;45.890;13.714;2024-02-26T07:57:30;100248.03;;;7.99;100.00
77159;BME280;66129;45.890;13.714;2024-02-26T07:59:55;100257.00;;;9.04;100.00
77159;BME280;66129;45.890;13.714;2024-02-26T08:02:21;100259.22;;;9.35;100.00
77159;BME280;66129;45.890;13.714;2024-02-26T08:04:47;100260.16;;;9.42;100.00
77159;BME280;66129;45.890;13.714;2024-02-26T08:07:12;100253.63;;;9.59;100.00
77159;BME280;66129;45.890;13.714;2024-02-26T08:09:38;100260.31;;;10.04;100.00
77159;BME280;66129;45.890;13.714;2024-02-26T08:12:04;100275.00;;;10.18;100.00
77159;BME280;66129;45.890;13.714;2024-02-26T08:14:29;100262.53;;;9.30;100.00
77159;BME280;66129;45.890;13.714;2024-02-26T08:16:55;100270.44;;;9.43;100.00
77159;BME280;66129;45.890;13.714;2024-02-26T08:19:20;100269.09;;;9.66;100.00
77159;BME280;66129;45.890;13.714;2024-02-26T08:21:46;100266.50;;;9.11;100.00
77159;BME280;66129;45.890;13.714;2024-02-26T08:24:11;100275.31;;;9.30;100.00
77159;BME280;66129;45.890;13.714;2024-02-26T08:26:37;100274.28;;;9.19;100.00
77159;BME280;66129;45.890;13.714;2024-02-26T08:29:02;100278.56;;;9.20;100.00
77159;BME280;66129;45.890;13.714;2024-02-26T08:31:28;100265.94;;;9.30;100.00
77159;BME280;66129;45.890;13.714;2024-02-26T08:33:54;100272.72;;;9.27;100.00
77159;BME280;66129;45.890;13.714;2024-02-26T08:36:20;100266.19;;;9.45;100.00
77159;BME280;66129;45.890;13.714;2024-02-26T08:38:45;100266.28;;;9.50;100.00
77159;BME280;66129;45.890;13.714;2024-02-26T08:41:11;100270.56;;;9.51;100.00
77159;BME280;66129;45.890;13.714;2024-02-26T08:43:36;100262.56;;;9.33;100.00
77159;BME280;66129;45.890;13.714;2024-02-26T08:46:02;100258.50;;;9.44;100.00
77159;BME280;66129;45.890;13.714;2024-02-26T08:48:28;100265.44;;;9.51;100.00
77159;BME280;66129;45.890;13.714;2024-02-26T08:50:53;100263.72;;;9.50;100.00
77159;BME280;66129;45.890;13.714;2024-02-26T08:53:20;100262.00;;;9.49;100.00
77159;BME280;66129;45.890;13.714;2024-02-26T08:55:45;100260.63;;;9.70;100.00
77159;BME280;66129;45.890;13.714;2024-02-26T08:58:11;100263.81;;;9.56;100.00
77159;BME280;66129;45.890;13.714;2024-02-26T09:00:36;100263.19;;;9.72;100.00
77159;BME280;66129;45.890;13.714;2024-02-26T09:03:02;100265.47;;;10.08;100.00
77159;BME280;66129;45.890;13.714;2024-02-26T09:05:28;100262.06;;;10.09;100.00
77159;BME280;66129;45.890;13.714;2024-02-26T09:07:53;100257.78;;;10.10;100.00
77159;BME280;66129;45.890;13.714;2024-02-26T09:10:19;100262.34;;;10.29;100.00
77159;BME280;66129;45.890;13.714;2024-02-26T09:12:45;100272.63;;;10.33;100.00
77159;BME280;66129;45.890;13.714;2024-02-26T09:15:10;100262.34;;;10.30;100.00
77159;BME280;66129;45.890;13.714;2024-02-26T09:17:36;100254.06;;;10.51;100.00
77159;BME280;66129;45.890;13.714;2024-02-26T09:20:03;100267.13;;;10.73;100.00
77159;BME280;66129;45.890;13.714;2024-02-26T09:22:29;100258.84;;;10.98;100.00
77159;BME280;66129;45.890;13.714;2024-02-26T09:24:54;100252.28;;;11.30;100.00
77159;BME280;66129;45.890;13.714;2024-02-26T09:27:19;100259.47;;;11.67;100.00
77159;BME280;66129;45.890;13.714;2024-02-26T09:29:45;100259.66;;;12.00;100.00
77159;BME280;66129;45.890;13.714;2024-02-26T09:32:12;100258.81;;;11.95;100.00
77159;BME280;66129;45.890;13.714;2024-02-26T09:34:40;100276.88;;;12.13;100.00
77159;BME280;66129;45.890;13.714;2024-02-26T09:37:05;100271.63;;;11.92;100.00
77159;BME280;66129;45.890;13.714;2024-02-26T09:39:31;100277.50;;;11.79;100.00
77159;BME280;66129;45.890;13.714;2024-02-26T09:41:56;100267.16;;;11.65;100.00
77159;BME280;66129;45.890;13.714;2024-02-26T09:44:23;100273.09;;;11.60;100.00
77159;BME280;66129;45.890;13.714;2024-02-26T09:46:52;100268.72;;;11.53;100.00
77159;BME280;66129;45.890;13.714;2024-02-26T09:49:21;100274.50;;;11.28;100.00
77159;BME280;66129;45.890;13.714;2024-02-26T09:51:49;100265.91;;;11.23;100.00
77159;BME280;66129;45.890;13.714;2024-02-26T09:54:16;100283.38;;;11.60;100.00
77159;BME280;66129;45.890;13.714;2024-02-26T09:56:43;100280.63;;;11.43;100.00
77159;BME280;66129;45.890;13.714;2024-02-26T09:59:15;100266.41;;;11.81;100.00
77159;BME280;66129;45.890;13.714;2024-02-26T10:01:42;100263.97;;;12.07;100.00
77159;BME280;66129;45.890;13.714;2024-02-26T10:04:10;100270.03;;;12.13;100.00
77159;BME280;66129;45.890;13.714;2024-02-26T10:06:36;100278.59;;;12.12;100.00
77159;BME280;66129;45.890;13.714;2024-02-26T10:09:03;100282.78;;;11.98;100.00
77159;BME280;66129;45.890;13.714;2024-02-26T10:11:32;100276.81;;;11.98;100.00
77159;BME280;66129;45.890;13.714;2024-02-26T10:13:58;100271.63;;;11.92;100.00
77159;BME280;66129;45.890;13.714;2024-02-26T10:16:24;100269.06;;;11.95;100.00
77159;BME280;66129;45.890;13.714;2024-02-26T10:18:53;100288.00;;;12.16;97.59
77159;BME280;66129;45.890;13.714;2024-02-26T10:21:21;100286.38;;;12.30;96.52
77159;BME280;66129;45.890;13.714;2024-02-26T10:23:48;100277.91;;;12.52;95.57
77159;BME280;66129;45.890;13.714;2024-02-26T10:26:15;100277.97;;;12.65;93.81
77159;BME280;66129;45.890;13.714;2024-02-26T10:28:45;100275.56;;;13.25;93.03
77159;BME280;66129;45.890;13.714;2024-02-26T10:31:11;100270.41;;;13.68;87.95
77159;BME280;66129;45.890;13.714;2024-02-26T10:33:38;100266.88;;;14.37;82.68
77159;BME280;66129;45.890;13.714;2024-02-26T10:36:05;100280.22;;;15.10;80.32
77159;BME280;66129;45.890;13.714;2024-02-26T10:38:36;100281.22;;;14.91;69.54
77159;BME280;66129;45.890;13.714;2024-02-26T10:41:10;100269.16;;;14.93;68.81
77159;BME280;66129;45.890;13.714;2024-02-26T10:43:38;100262.19;;;15.04;66.59
77159;BME280;66129;45.890;13.714;2024-02-26T10:46:03;100265.81;;;14.75;68.15
77159;BME280;66129;45.890;13.714;2024-02-26T10:48:29;100268.53;;;14.46;70.91
77159;BME280;66129;45.890;13.714;2024-02-26T10:50:54;100264.22;;;14.51;71.39
77159;BME280;66129;45.890;13.714;2024-02-26T10:53:22;100263.47;;;14.20;71.79
77159;BME280;66129;45.890;13.714;2024-02-26T10:55:57;100270.31;;;14.28;72.47
77159;BME280;66129;45.890;13.714;2024-02-26T10:58:23;100261.72;;;14.34;69.62
77159;BME280;66129;45.890;13.714;2024-02-26T11:00:51;100264.19;;;14.60;75.63
77159;BME280;66129;45.890;13.714;2024-02-26T11:03:16;100254.59;;;14.83;74.59
77159;BME280;66129;45.890;13.714;2024-02-26T11:05:46;100247.63;;;14.97;72.32
77159;BME280;66129;45.890;13.714;2024-02-26T11:08:12;100246.75;;;15.00;75.54
77159;BME280;66129;45.890;13.714;2024-02-26T11:10:39;100244.13;;;15.04;71.14
77159;BME280;66129;45.890;13.714;2024-02-26T11:13:06;100244.94;;;15.12;71.02
77159;BME280;66129;45.890;13.714;2024-02-26T11:15:34;100245.75;;;15.16;71.55
77159;BME280;66129;45.890;13.714;2024-02-26T11:18:01;100242.28;;;15.24;75.35
77159;BME280;66129;45.890;13.714;2024-02-26T11:20:28;100242.25;;;15.29;73.64
77159;BME280;66129;45.890;13.714;2024-02-26T11:22:57;100240.63;;;15.14;70.64
77159;BME280;66129;45.890;13.714;2024-02-26T11:25:22;100235.41;;;15.19;72.40
77159;BME280;66129;45.890;13.714;2024-02-26T11:27:55;100235.34;;;15.34;76.61
77159;BME280;66129;45.890;13.714;2024-02-26T11:30:25;100236.69;;;15.75;73.02
77159;BME280;66129;45.890;13.714;2024-02-26T11:32:52;100221.81;;;15.96;69.25
77159;BME280;66129;45.890;13.714;2024-02-26T11:35:18;100225.97;;;16.09;67.62
77159;BME280;66129;45.890;13.714;2024-02-26T11:37:55;100234.91;;;15.83;72.99
77159;BME280;66129;45.890;13.714;2024-02-26T11:40:23;100227.34;;;15.63;68.47
77159;BME280;66129;45.890;13.714;2024-02-26T11:42:49;100218.97;;;15.35;72.37
77159;BME280;66129;45.890;13.714;2024-02-26T11:48:04;100224.47;;;14.85;71.23
77159;BME280;66129;45.890;13.714;2024-02-26T11:50:39;100222.00;;;14.67;70.40
77159;BME280;66129;45.890;13.714;2024-02-26T12:01:46;100222.84;;;14.71;70.10
77159;BME280;66129;45.890;13.714;2024-02-26T12:04:18;100221.13;;;14.67;68.42
77159;BME280;66129;45.890;13.714;2024-02-26T12:09:11;100204.94;;;14.41;67.49
77159;BME280;66129;45.890;13.714;2024-02-26T12:11:39;100205.59;;;14.74;68.00
77159;BME280;66129;45.890;13.714;2024-02-26T12:14:07;100209.78;;;14.92;66.47
77159;BME280;66129;45.890;13.714;2024-02-26T12:16:39;100201.94;;;15.10;68.93
77159;BME280;66129;45.890;13.714;2024-02-26T12:19:08;100211.34;;;15.18;68.53
77159;BME280;66129;45.890;13.714;2024-02-26T12:21:35;100209.69;;;15.08;68.08
77159;BME280;66129;45.890;13.714;2024-02-26T12:24:14;100199.50;;;14.87;67.27
77159;BME280;66129;45.890;13.714;2024-02-26T12:26:41;100207.31;;;14.78;67.01
77159;BME280;66129;45.890;13.714;2024-02-26T12:29:07;100197.97;;;14.55;68.45
77159;BME280;66129;45.890;13.714;2024-02-26T12:31:33;100205.69;;;14.64;69.36
77159;BME280;66129;45.890;13.714;2024-02-26T12:34:00;100196.28;;;14.55;67.50
77159;BME280;66129;45.890;13.714;2024-02-26T12:36:26;100198.00;;;14.50;68.18
77159;BME280;66129;45.890;13.714;2024-02-26T12:38:52;100204.03;;;14.51;70.48
77159;BME280;66129;45.890;13.714;2024-02-26T12:41:17;100201.38;;;14.66;74.40
77159;BME280;66129;45.890;13.714;2024-02-26T12:43:43;100196.22;;;14.67;70.04
77159;BME280;66129;45.890;13.714;2024-02-26T12:46:10;100194.50;;;14.62;66.08